Time;durP1;ratioP1;P1;durP2;ratioP2;P2;SDS_P1;SDS_P2;PMS_P1;PMS_P2;Temp;Humidity;BMP_temperature;BMP_pressure;BME280_temperature;BME280_humidity;BME280_pressure;Samples;Min_cycle;Max_cycle;Signal;HPM_P1;HPM_P2
2021/01/02 00:02:23;;;;;;;5.83;3.95;;;;;;;5.68;66.42;100611.45;1733082;80;21146;-45
2021/01/02 00:05:02;;;;;;;5.55;3.47;;;;;;;5.74;66.37;100613.00;1743189;80;21626;-40
2021/01/02 00:07:57;;;;;;;7.60;4.60;;;;;;;5.85;66.39;100617.46;1740326;80;21158;-43
2021/01/02 00:10:43;;;;;;;7.12;4.75;;;;;;;5.93;66.22;100619.83;1733377;82;21597;-43
2021/01/02 00:13:21;;;;;;;5.92;4.05;;;;;;;6.01;66.06;100617.31;1650441;85;21482;-42
2021/01/02 00:15:57;;;;;;;6.67;4.00;;;;;;;6.01;66.06;100617.31;1655582;85;21262;-42
2021/01/02 00:18:37;;;;;;;6.47;3.87;;;;;;;6.08;65.97;100626.37;1654064;85;21181;-43
2021/01/02 00:21:25;;;;;;;5.42;3.77;;;;;;;6.11;65.76;100627.10;1656557;85;21198;-42
2021/01/02 00:24:10;;;;;;;6.28;4.15;;;;;;;6.13;65.70;100638.50;1654146;85;21458;-44
2021/01/02 00:27:17;;;;;;;5.40;3.70;;;;;;;6.19;65.82;100638.27;1788612;78;23342;-41
2021/01/02 00:29:51;;;;;;;;;;;;;;;6.17;65.76;100646.72;1765861;78;21160;-42
2021/01/02 00:32:56;;;;;;;6.17;4.03;;;;;;;6.14;65.62;100653.46;1765455;80;20170;-42
2021/01/02 00:35:25;;;;;;;5.25;3.67;;;;;;;6.10;65.70;100659.81;1694029;81;22079;-45
2021/01/02 00:38:03;;;;;;;7.85;4.15;;;;;;;6.10;65.70;100659.81;1734415;80;21157;-43
2021/01/02 00:40:32;;;;;;;6.42;4.22;;;;;;;6.12;65.82;100667.67;1711122;81;21200;-42
2021/01/02 00:43:00;;;;;;;8.10;4.55;;;;;;;6.12;65.79;100670.33;1706158;81;21208;-44
2021/01/02 00:45:29;;;;;;;7.50;5.28;;;;;;;6.10;65.67;100667.75;1709629;81;21165;-43
2021/01/02 00:47:57;;;;;;;7.80;5.17;;;;;;;6.13;65.68;100677.37;1719629;81;21153;-47
2021/01/02 00:50:27;;;;;;;8.73;5.95;;;;;;;6.09;65.54;100670.45;1710611;81;21169;-45
2021/01/02 00:53:04;;;;;;;6.87;4.20;;;;;;;6.10;65.62;100684.08;1719872;81;21149;-44
2021/01/02 00:55:56;;;;;;;6.05;3.85;;;;;;;6.08;65.54;100685.94;1737597;80;21942;-48
2021/01/02 00:59:08;;;;;;;7.15;5.05;;;;;;;6.07;65.58;100686.38;1715144;82;21178;-46
2021/01/02 01:01:52;;;;;;;13.15;6.12;;;;;;;6.13;65.55;100690.14;1681485;83;21929;-47
2021/01/02 01:04:49;;;;;;;6.65;4.60;;;;;;;6.13;65.06;100689.28;1801668;78;22969;-47
2021/01/02 01:07:17;;;;;;;6.75;4.58;;;;;;;6.13;65.06;100689.28;1777038;79;21864;-44
2021/01/02 01:09:49;;;;;;;6.20;4.10;;;;;;;6.16;64.61;100693.13;1777354;78;21149;-41
2021/01/02 01:12:18;;;;;;;8.17;4.27;;;;;;;6.13;64.34;100695.44;1774537;79;21428;-40
2021/01/02 01:14:46;;;;;;;6.08;4.53;;;;;;;6.12;64.18;100699.45;1771264;79;21424;-42
2021/01/02 01:17:23;;;;;;;7.70;4.78;;;;;;;6.10;63.81;100700.85;1717546;81;21163;-42
2021/01/02 01:19:54;;;;;;;5.20;3.55;;;;;;;6.06;63.53;100702.73;1717031;82;21134;-44
2021/01/02 01:22:25;;;;;;;6.08;3.95;;;;;;;6.03;63.41;100707.28;1725268;81;21157;-40
2021/01/02 01:25:01;;;;;;;;;;;;;;;6.03;63.22;100697.55;1728597;82;21460;-42
2021/01/02 01:27:53;;;;;;;5.60;3.52;;;;;;;6.03;63.04;100704.17;1718403;82;20198;-44
2021/01/02 01:30:22;;;;;;;5.75;4.15;;;;;;;5.99;62.66;100706.52;1724724;81;21125;-41
2021/01/02 01:33:00;;;;;;;6.42;4.47;;;;;;;6.00;62.64;100712.70;1720422;81;21613;-45
2021/01/02 01:35:29;;;;;;;6.03;3.45;;;;;;;6.00;62.48;100712.23;1698071;82;21203;-46
2021/01/02 01:37:57;;;;;;;26.60;19.02;;;;;;;6.02;62.25;100712.16;1700805;83;21173;-42
2021/01/02 01:40:28;;;;;;;10.98;7.62;;;;;;;6.04;62.37;100712.97;1699665;82;21192;-45
2021/01/02 01:43:07;;;;;;;5.95;4.08;;;;;;;6.06;62.32;100721.27;1679970;82;21171;-43
2021/01/02 01:45:45;;;;;;;6.80;4.15;;;;;;;6.09;62.13;100728.23;1685953;84;21153;-45
2021/01/02 01:48:20;;;;;;;5.50;3.58;;;;;;;6.06;61.98;100727.88;1691153;83;21153;-43
2021/01/02 01:54:01;;;;;;;6.37;4.15;;;;;;;6.08;61.80;100726.52;1893426;74;23076;-46
2021/01/02 01:56:34;;;;;;;6.10;4.00;;;;;;;6.00;61.60;100741.82;1843058;75;21921;-41
2021/01/02 01:59:21;;;;;;;5.70;3.90;;;;;;;5.96;61.63;100749.45;1828142;75;21117;-45
2021/01/02 02:01:53;;;;;;;7.03;4.55;;;;;;;5.96;61.43;100752.09;1801916;78;21137;-45
2021/01/02 02:05:00;;;;;;;5.92;3.27;;;;;;;5.94;61.36;100760.08;1789690;77;21138;-43
2021/01/02 02:08:01;;;;;;;4.90;3.02;;;;;;;5.91;61.24;100765.45;1806881;78;21586;-43
2021/01/02 02:10:31;;;;;;;5.53;3.60;;;;;;;5.89;60.88;100765.96;1799170;77;21156;-44
2021/01/02 02:13:15;;;;;;;5.35;3.58;;;;;;;5.83;60.88;100767.05;1798123;78;21134;-43
2021/01/02 02:15:57;;;;;;;7.37;4.62;;;;;;;5.74;60.47;100771.78;1728901;81;21145;-46
2021/01/02 02:18:30;;;;;;;7.55;3.90;;;;;;;5.65;60.54;100780.91;1797710;77;22840;-44
2021/01/02 02:21:00;;;;;;;6.45;4.53;;;;;;;5.53;60.69;100784.81;1733481;80;21129;-44
2021/01/02 02:23:43;;;;;;;5.40;4.00;;;;;;;5.50;61.10;100790.67;1772734;78;21129;-43
2021/01/02 02:26:21;;;;;;;6.28;3.95;;;;;;;5.50;60.96;100787.57;1769335;78;21156;-43
2021/01/02 02:29:13;;;;;;;6.15;3.65;;;;;;;5.53;61.00;100793.22;1770500;78;21153;-45
2021/01/02 02:31:46;;;;;;;;;;;;;;;5.56;61.15;100799.27;1779513;78;22174;-40
2021/01/02 02:34:15;;;;;;;6.12;3.77;;;;;;;5.54;60.46;100807.70;1764041;78;20225;-45
2021/01/02 02:36:42;;;;;;;6.70;4.58;;;;;;;5.47;60.32;100810.16;1754403;80;21602;-44
2021/01/02 02:39:12;;;;;;;6.25;4.80;;;;;;;5.41;60.03;100810.34;1747666;80;21538;-43
2021/01/02 02:41:51;;;;;;;5.47;3.80;;;;;;;5.31;60.02;100815.52;1742863;80;21174;-44
2021/01/02 02:44:26;;;;;;;6.62;4.00;;;;;;;5.17;60.36;100815.95;1745287;80;21138;-44
2021/01/02 02:46:58;;;;;;;5.10;3.65;;;;;;;5.13;60.83;100819.59;1710006;81;21174;-45
2021/01/02 02:49:30;;;;;;;5.80;3.65;;;;;;;5.11;60.75;100820.09;1671515;83;21177;-45
2021/01/02 02:52:18;;;;;;;6.33;4.28;;;;;;;5.08;60.79;100821.05;1664663;83;21867;-43
2021/01/02 02:54:45;;;;;;;6.35;3.83;;;;;;;5.01;61.11;100820.83;1711809;81;21194;-40
2021/01/02 02:57:13;;;;;;;5.80;4.03;;;;;;;4.98;61.20;100817.81;1715848;81;21650;-44
2021/01/02 02:59:40;;;;;;;5.28;3.52;;;;;;;4.97;61.36;100826.67;1714524;81;21470;-42
2021/01/02 03:02:08;;;;;;;6.53;4.10;;;;;;;4.96;61.53;100823.63;1717869;81;21152;-45
2021/01/02 03:04:36;;;;;;;5.62;3.95;;;;;;;4.97;61.59;100825.81;1685931;81;21179;-43
2021/01/02 03:07:04;;;;;;;5.67;3.87;;;;;;;4.98;61.75;100832.36;1707724;81;21174;-46
2021/01/02 03:09:32;;;;;;;6.78;4.50;;;;;;;5.03;61.58;100832.69;1706976;81;21207;-43
2021/01/02 03:12:00;;;;;;;6.92;5.12;;;;;;;5.04;61.52;100836.62;1709544;81;21198;-45
2021/01/02 03:14:28;;;;;;;6.22;4.35;;;;;;;5.06;61.64;100847.13;1704668;81;21137;-45
2021/01/02 03:16:59;;;;;;;7.47;4.58;;;;;;;5.08;61.60;100854.09;1704357;81;21597;-47
2021/01/02 03:19:31;;;;;;;6.87;5.05;;;;;;;5.11;61.63;100851.82;1702428;82;21149;-41
2021/01/02 03:21:58;;;;;;;;;;;;;;;5.13;61.63;100855.29;1715154;82;21519;-47
2021/01/02 03:24:26;;;;;;;6.78;4.58;;;;;;;5.13;61.72;100857.94;1674296;83;20473;-42
2021/01/02 03:26:54;;;;;;;7.50;4.30;;;;;;;5.13;61.79;100858.80;1673439;83;21625;-44
2021/01/02 03:29:21;;;;;;;5.58;3.95;;;;;;;5.17;61.73;100859.12;1690340;82;21640;-45
2021/01/02 03:31:49;;;;;;;7.25;5.12;;;;;;;5.17;61.92;100860.91;1686273;83;21153;-45
2021/01/02 03:34:17;;;;;;;7.40;4.58;;;;;;;5.15;61.98;100859.62;1703297;82;21307;-44
2021/01/02 03:36:45;;;;;;;6.87;4.90;;;;;;;5.14;62.01;100858.33;1700359;82;21750;-44
2021/01/02 03:39:12;;;;;;;6.25;4.33;;;;;;;5.16;62.19;100855.19;1703727;82;21307;-44
2021/01/02 03:41:40;;;;;;;6.97;4.50;;;;;;;5.17;62.45;100852.52;1700394;82;21130;-41
2021/01/02 03:44:07;;;;;;;6.35;4.33;;;;;;;5.22;62.51;100853.70;1676311;83;21169;-46
2021/01/02 03:46:35;;;;;;;5.97;4.17;;;;;;;5.27;62.47;100854.42;1692712;83;21594;-44
2021/01/02 03:49:02;;;;;;;6.62;4.50;;;;;;;5.33;62.91;100866.59;1683878;83;21890;-45
2021/01/02 03:51:30;;;;;;;6.90;4.75;;;;;;;5.37;63.09;100873.52;1683268;83;21634;-45
2021/01/02 03:53:57;;;;;;;5.75;4.35;;;;;;;5.41;63.08;100881.30;1682916;83;21555;-45
2021/01/02 03:56:25;;;;;;;6.55;4.30;;;;;;;5.45;62.98;100881.23;1680993;83;21154;-46
2021/01/02 03:58:53;;;;;;;6.40;4.35;;;;;;;5.49;63.09;100885.48;1701544;82;21607;-42
2021/01/02 04:01:20;;;;;;;5.47;3.85;;;;;;;5.48;63.26;100889.92;1711280;82;21161;-41
2021/01/02 04:03:48;;;;;;;6.20;4.23;;;;;;;5.48;63.13;100901.82;1675500;83;21435;-42
2021/01/02 04:06:25;;;;;;;6.80;5.00;;;;;;;5.45;62.85;100899.28;1682416;83;21153;-44
2021/01/02 04:08:52;;;;;;;4.95;3.60;;;;;;;5.37;62.32;100900.84;1706328;82;21168;-41
2021/01/02 04:11:20;;;;;;;5.55;3.85;;;;;;;5.24;62.15;100906.52;1705865;82;21152;-43
2021/01/02 04:13:49;;;;;;;5.42;4.37;;;;;;;5.18;62.05;100909.76;1707880;82;21162;-44
2021/01/02 04:16:18;;;;;;;5.12;3.58;;;;;;;5.13;62.07;100909.03;1707618;82;21119;-45
2021/01/02 04:18:45;;;;;;;4.65;3.58;;;;;;;5.10;62.26;100918.37;1691547;81;21181;-40
2021/01/02 04:21:13;;;;;;;5.10;3.72;;;;;;;5.10;62.26;100917.05;1696043;82;21149;-45
2021/01/02 04:23:41;;;;;;;5.70;3.75;;;;;;;5.10;62.15;100905.63;1695529;82;21133;-45
2021/01/02 04:26:08;;;;;;;4.90;3.92;;;;;;;5.11;62.08;100917.91;1693487;82;21161;-44
2021/01/02 04:28:36;;;;;;;5.92;4.22;;;;;;;5.11;62.07;100917.91;1696801;82;21181;-45
2021/01/02 04:31:04;;;;;;;8.03;4.55;;;;;;;5.14;62.07;100924.43;1697712;83;21193;-43
2021/01/02 04:33:31;;;;;;;5.55;3.95;;;;;;;5.13;62.01;100930.18;1707302;82;21146;-44
2021/01/02 04:35:59;;;;;;;5.30;3.75;;;;;;;5.14;62.02;100937.65;1695558;82;21155;-46
2021/01/02 04:38:26;;;;;;;6.83;4.15;;;;;;;5.14;62.12;100940.30;1691251;82;21156;-41
2021/01/02 04:40:58;;;;;;;5.10;3.62;;;;;;;5.14;62.07;100953.52;1698460;82;21154;-44
2021/01/02 04:43:26;;;;;;;5.40;3.83;;;;;;;5.11;62.08;100954.47;1694482;82;21142;-41
2021/01/02 04:45:53;;;;;;;5.45;3.95;;;;;;;5.11;62.14;100960.22;1697267;83;21187;-43
2021/01/02 04:48:21;;;;;;;5.92;3.83;;;;;;;5.11;62.15;100958.89;1677145;82;21182;-44
2021/01/02 04:50:48;;;;;;;5.58;3.87;;;;;;;5.10;62.20;100963.33;1700684;82;21161;-41
2021/01/02 04:53:16;;;;;;;5.47;3.70;;;;;;;5.10;62.24;100962.00;1697527;82;21151;-41
2021/01/02 04:55:45;;;;;;;6.05;4.03;;;;;;;5.09;62.38;100974.82;1692474;83;21133;-43
2021/01/02 04:58:17;;;;;;;5.80;3.55;;;;;;;5.11;62.55;100974.76;1707209;82;21126;-42
2021/01/02 05:00:47;;;;;;;5.33;3.77;;;;;;;5.12;62.74;100974.73;1699553;82;21176;-44
2021/01/02 05:03:14;;;;;;;6.10;3.98;;;;;;;5.11;62.83;100974.30;1695204;82;21146;-43
2021/01/02 05:05:42;;;;;;;5.67;3.37;;;;;;;5.10;62.93;100977.86;1695533;82;21173;-44
2021/01/02 05:08:10;;;;;;;4.87;3.58;;;;;;;5.10;62.84;100981.83;1667453;84;21168;-41
2021/01/02 05:10:38;;;;;;;6.75;4.33;;;;;;;5.08;62.76;100990.72;1696157;82;21193;-40
2021/01/02 05:13:12;;;;;;;5.05;3.75;;;;;;;5.05;62.68;100990.80;1687665;82;21178;-41
2021/01/02 05:15:40;;;;;;;6.55;4.28;;;;;;;5.01;62.70;101000.58;1693139;82;21186;-45
2021/01/02 05:18:08;;;;;;;5.92;4.00;;;;;;;4.98;62.72;101008.59;1710635;82;21158;-41
2021/01/02 05:20:36;;;;;;;5.78;4.17;;;;;;;4.96;62.96;101006.45;1728783;80;21161;-41
2021/01/02 05:23:10;;;;;;;5.30;4.30;;;;;;;4.97;63.02;101009.06;1724805;80;21147;-45
2021/01/02 05:25:37;;;;;;;6.47;3.70;;;;;;;4.98;63.03;101013.42;1725762;80;21142;-43
2021/01/02 05:28:05;;;;;;;5.08;3.22;;;;;;;4.99;63.05;101020.47;1691399;82;21176;-42
2021/01/02 05:30:33;;;;;;;6.80;4.47;;;;;;;4.99;63.13;101016.50;1687866;81;21154;-43
2021/01/02 05:33:13;;;;;;;4.90;3.65;;;;;;;5.02;63.12;101023.48;1732264;81;21150;-44
2021/01/02 05:35:46;;;;;;;5.75;4.45;;;;;;;5.05;63.37;101029.14;1692164;82;21162;-43
2021/01/02 05:38:22;;;;;;;5.33;3.62;;;;;;;5.07;63.42;101033.94;1729914;80;21162;-46
2021/01/02 05:40:56;;;;;;;4.90;3.67;;;;;;;5.04;63.33;101040.60;1724916;80;21146;-42
2021/01/02 05:43:26;;;;;;;5.25;3.77;;;;;;;5.02;63.63;101045.09;1730612;81;21165;-42
2021/01/02 05:45:54;;;;;;;5.45;4.03;;;;;;;5.01;63.55;101052.12;1733750;81;21613;-41
2021/01/02 05:48:25;;;;;;;5.20;3.85;;;;;;;4.99;63.39;101059.26;1736103;81;21584;-44
2021/01/02 05:50:58;;;;;;;6.10;4.55;;;;;;;4.95;63.33;101059.77;1725131;80;21142;-45
2021/01/02 05:53:28;;;;;;;6.72;4.45;;;;;;;4.92;63.33;101060.32;1733640;81;21106;-44
2021/01/02 05:56:11;;;;;;;6.83;4.75;;;;;;;4.89;63.27;101067.87;1733175;81;21165;-46
2021/01/02 05:58:45;;;;;;;5.92;4.42;;;;;;;4.87;63.29;101072.33;1658947;84;21172;-40
2021/01/02 06:01:19;;;;;;;6.65;4.60;;;;;;;4.89;63.27;101066.98;1760393;79;23249;-43
2021/01/02 06:03:48;;;;;;;7.30;4.90;;;;;;;4.84;63.33;101076.80;1737181;80;21599;-40
2021/01/02 06:06:18;;;;;;;7.20;5.30;;;;;;;4.84;63.39;101086.05;1732746;80;21175;-44
2021/01/02 06:08:49;;;;;;;5.80;4.47;;;;;;;4.84;63.21;101091.34;1736133;80;21166;-42
2021/01/02 06:11:21;;;;;;;6.17;4.90;;;;;;;4.81;63.32;101093.61;1741257;82;21129;-42
2021/01/02 06:13:53;;;;;;;6.50;4.17;;;;;;;4.81;63.39;101089.64;1731900;80;21130;-41
2021/01/02 06:16:21;;;;;;;6.62;4.60;;;;;;;4.82;63.62;101098.47;1739731;80;21138;-41
2021/01/02 06:18:49;;;;;;;7.03;4.97;;;;;;;4.84;63.63;101100.16;1689793;82;21129;-41
2021/01/02 06:21:18;;;;;;;6.33;4.78;;;;;;;4.88;63.72;101105.77;1739407;80;21150;-44
2021/01/02 06:23:47;;;;;;;7.05;5.40;;;;;;;4.86;63.80;101108.89;1736627;80;21110;-42
2021/01/02 06:26:15;;;;;;;6.78;4.67;;;;;;;4.84;63.73;101111.16;1743468;80;21167;-41
2021/01/02 06:28:44;;;;;;;8.78;5.03;;;;;;;4.80;63.75;101118.77;1734818;81;21158;-41
2021/01/02 06:31:14;;;;;;;6.87;5.10;;;;;;;4.76;63.71;101125.45;1739826;82;21138;-41
2021/01/02 06:33:47;;;;;;;8.03;5.70;;;;;;;4.76;63.36;101127.20;1738637;80;21145;-45
2021/01/02 06:36:39;;;;;;;6.62;4.75;;;;;;;4.69;63.04;101127.83;1720132;82;21128;-43
2021/01/02 06:39:31;;;;;;;7.85;5.20;;;;;;;4.64;63.00;101131.48;1718810;82;21118;-42
2021/01/02 06:41:59;;;;;;;8.38;5.28;;;;;;;4.61;63.03;101135.50;1720479;82;21126;-41
2021/01/02 06:44:43;;;;;;;7.72;5.08;;;;;;;4.56;63.10;101136.92;1714863;82;21142;-41
2021/01/02 06:47:25;;;;;;;8.73;5.80;;;;;;;4.55;63.33;101132.09;1689833;84;21173;-42
2021/01/02 06:49:53;;;;;;;13.22;9.20;;;;;;;4.55;63.29;101134.73;1682457;83;21145;-41
2021/01/02 06:52:34;;;;;;;8.00;5.85;;;;;;;4.52;63.29;101135.27;1663233;82;21149;-43
2021/01/02 06:55:26;;;;;;;11.38;6.20;;;;;;;4.52;63.46;101142.74;1712674;83;21182;-44
2021/01/02 06:58:08;;;;;;;9.13;6.17;;;;;;;4.44;63.42;101151.30;1711860;82;21398;-43
2021/01/02 07:00:37;;;;;;;8.05;6.10;;;;;;;4.42;63.66;101150.46;1687690;83;21149;-42
2021/01/02 07:03:04;;;;;;;8.10;5.58;;;;;;;4.41;63.55;101156.66;1664111;84;21165;-42
2021/01/02 07:08:51;;;;;;;10.03;6.72;;;;;;;4.42;63.85;101162.34;1800327;78;23591;-42
2021/01/02 07:11:43;;;;;;;8.45;5.12;;;;;;;4.43;64.01;101171.13;1770921;80;21141;-44
2021/01/02 07:14:21;;;;;;;8.50;6.00;;;;;;;4.43;63.96;101176.41;1780606;80;21129;-40
2021/01/02 07:17:11;;;;;;;7.85;5.22;;;;;;;4.42;64.09;101175.55;1775963;79;22006;-43
2021/01/02 07:19:44;;;;;;;7.72;6.05;;;;;;;4.39;64.06;101178.27;1777686;79;21130;-44
2021/01/02 07:22:25;;;;;;;10.58;8.38;;;;;;;4.38;64.05;101185.75;1778523;79;21153;-43
2021/01/02 07:25:16;;;;;;;6.35;5.15;;;;;;;4.33;64.25;101184.98;1784440;80;21557;-45
2021/01/02 07:27:44;;;;;;;9.08;5.87;;;;;;;4.30;64.37;101189.02;1710791;80;21150;-44
2021/01/02 07:30:12;;;;;;;7.67;5.60;;;;;;;4.30;64.48;101192.98;1721211;81;21144;-42
2021/01/02 07:32:44;;;;;;;9.45;6.75;;;;;;;4.35;64.67;101192.43;1719066;83;21170;-41
2021/01/02 07:35:13;;;;;;;7.67;5.80;;;;;;;4.42;64.83;101197.14;1708631;83;21134;-42
2021/01/02 07:37:43;;;;;;;11.60;7.03;;;;;;;4.45;64.78;101198.38;1704175;83;21170;-40
2021/01/02 07:40:15;;;;;;;8.95;5.92;;;;;;;4.48;64.89;101200.50;1719755;81;21168;-44
2021/01/02 07:42:53;;;;;;;9.50;6.12;;;;;;;4.51;64.94;101204.41;1706884;84;21143;-44
2021/01/02 07:45:23;;;;;;;11.55;7.35;;;;;;;4.54;64.89;101203.02;1715495;82;21150;-41
2021/01/02 07:47:58;;;;;;;9.35;6.55;;;;;;;4.57;64.74;101206.05;1723925;81;21577;-43
2021/01/02 07:50:30;;;;;;;8.05;6.30;;;;;;;4.58;64.67;101209.09;1695609;83;21165;-40
2021/01/02 07:53:00;;;;;;;8.48;6.00;;;;;;;4.60;64.67;101207.75;1726851;81;21861;-43
2021/01/02 07:55:33;;;;;;;9.03;6.00;;;;;;;4.60;64.59;101210.39;1697839;83;21130;-43
2021/01/02 07:58:01;;;;;;;7.17;5.25;;;;;;;4.56;64.72;101208.25;1705404;83;21158;-42
2021/01/02 08:00:29;;;;;;;10.03;6.15;;;;;;;4.55;64.76;101219.28;1705233;83;21161;-41
2021/01/02 08:03:04;;;;;;;8.35;6.05;;;;;;;4.58;64.87;101230.23;1715952;83;21165;-42
2021/01/02 08:05:32;;;;;;;9.38;6.00;;;;;;;4.60;64.82;101227.56;1719937;82;21152;-45
2021/01/02 08:08:01;;;;;;;9.68;6.50;;;;;;;4.64;64.79;101233.21;1708708;83;21138;-47
2021/01/02 08:10:29;;;;;;;10.48;7.83;;;;;;;4.69;64.68;101233.98;1707255;83;21497;-43
2021/01/02 08:13:00;;;;;;;12.63;7.75;;;;;;;4.71;64.65;101233.47;1715127;82;21114;-40
2021/01/02 08:15:36;;;;;;;9.98;7.83;;;;;;;4.73;64.59;101236.95;1750078;80;21158;-42
2021/01/02 08:18:08;;;;;;;8.98;6.80;;;;;;;4.70;64.79;101243.63;1744666;80;21130;-45
2021/01/02 08:20:37;;;;;;;9.15;6.05;;;;;;;4.71;64.91;101246.68;1751619;80;21158;-41
2021/01/02 08:23:07;;;;;;;9.50;6.67;;;;;;;4.70;64.61;101252.88;1750012;80;21103;-41
2021/01/02 08:25:35;;;;;;;7.30;5.60;;;;;;;4.68;64.73;101256.00;1749061;81;21157;-43
2021/01/02 08:28:03;;;;;;;10.00;6.72;;;;;;;4.70;64.83;101250.23;1750384;81;21138;-40
2021/01/02 08:30:30;;;;;;;8.35;5.70;;;;;;;4.76;64.90;101260.66;1747361;81;21209;-43
2021/01/02 08:33:01;;;;;;;10.82;6.40;;;;;;;4.81;64.93;101256.59;1750240;80;21137;-39
2021/01/02 08:35:39;;;;;;;8.58;6.42;;;;;;;4.85;64.88;101252.99;1750361;81;21178;-41
2021/01/02 08:38:10;;;;;;;9.00;7.20;;;;;;;4.91;64.92;101260.34;1714782;82;21129;-44
2021/01/02 08:40:48;;;;;;;9.38;6.75;;;;;;;4.95;64.70;101269.92;1750654;80;21158;-43
2021/01/02 08:43:27;;;;;;;9.00;6.28;;;;;;;4.96;64.71;101270.36;1744480;80;21156;-42
2021/01/02 08:46:02;;;;;;;8.05;5.33;;;;;;;5.01;64.65;101272.01;1749895;81;21126;-43
2021/01/02 08:48:30;;;;;;;10.28;7.12;;;;;;;5.05;64.44;101270.59;1750512;80;21158;-44
2021/01/02 08:50:58;;;;;;;9.85;6.90;;;;;;;5.05;64.43;101269.27;1748397;82;21162;-42
2021/01/02 08:53:32;;;;;;;7.87;5.72;;;;;;;5.03;64.59;101267.56;1745298;80;21133;-44
2021/01/02 08:56:20;;;;;;;9.00;6.33;;;;;;;5.07;64.86;101267.46;1749073;80;21115;-44
2021/01/02 08:58:47;;;;;;;10.00;6.45;;;;;;;5.13;64.92;101267.76;1729757;80;21542;-41
2021/01/02 09:01:15;;;;;;;9.00;6.55;;;;;;;5.21;65.45;101265.34;1746236;82;21152;-42
2021/01/02 09:03:42;;;;;;;13.70;7.45;;;;;;;5.29;65.38;101263.86;1746822;82;21463;-41
2021/01/02 09:06:22;;;;;;;8.55;6.60;;;;;;;5.35;65.15;101266.80;1750758;80;21518;-49
2021/01/02 09:09:02;;;;;;;12.33;7.75;;;;;;;5.38;65.03;101268.91;1746081;80;21153;-41
2021/01/02 09:11:49;;;;;;;13.00;8.05;;;;;;;5.43;64.87;101268.80;1705193;83;21546;-40
2021/01/02 09:14:18;;;;;;;10.32;6.95;;;;;;;5.48;64.90;101271.34;1743866;80;21157;-43
2021/01/02 09:17:00;;;;;;;10.43;6.70;;;;;;;5.53;64.85;101282.21;1740665;82;21142;-44
2021/01/02 09:19:28;;;;;;;10.38;6.92;;;;;;;5.58;64.62;101275.48;1743360;80;21636;-40
2021/01/02 09:21:55;;;;;;;9.68;6.70;;;;;;;5.57;64.41;101286.53;1742573;80;21551;-42
2021/01/02 09:24:24;;;;;;;10.08;6.72;;;;;;;5.58;64.47;101284.75;1739821;80;21090;-44
2021/01/02 09:26:52;;;;;;;9.38;6.25;;;;;;;5.61;64.65;101280.69;1740764;80;21355;-41
2021/01/02 09:29:19;;;;;;;8.75;6.03;;;;;;;5.64;64.52;101278.86;1707711;82;21605;-44
2021/01/02 09:31:47;;;;;;;9.05;6.30;;;;;;;5.67;64.50;101277.02;1738999;81;21142;-42
2021/01/02 09:34:15;;;;;;;8.43;6.00;;;;;;;5.71;64.54;101284.84;1741023;80;21154;-42
2021/01/02 09:36:42;;;;;;;9.78;6.35;;;;;;;5.73;64.63;101284.36;1707433;82;21138;-45
2021/01/02 09:39:10;;;;;;;13.40;7.40;;;;;;;5.78;64.67;101280.27;1739708;80;21138;-45
2021/01/02 09:41:38;;;;;;;9.90;6.85;;;;;;;5.81;64.62;101281.05;1738322;80;21138;-42
2021/01/02 09:44:06;;;;;;;9.95;6.05;;;;;;;5.85;64.54;101276.56;1738447;81;21123;-44
2021/01/02 09:46:35;;;;;;;8.77;6.20;;;;;;;5.87;64.27;101282.66;1738834;80;21142;-43
2021/01/02 09:49:02;;;;;;;7.92;5.40;;;;;;;5.87;64.16;101281.33;1740041;80;21153;-43
2021/01/02 09:51:30;;;;;;;10.20;6.22;;;;;;;5.89;64.05;101282.17;1737922;80;22283;-45
2021/01/02 09:53:58;;;;;;;8.68;6.05;;;;;;;5.92;64.15;101286.52;1702124;84;21951;-45
2021/01/02 09:56:25;;;;;;;8.73;6.22;;;;;;;5.94;64.26;101288.24;1736918;80;21134;-44
2021/01/02 09:58:53;;;;;;;7.42;5.75;;;;;;;5.98;64.34;101281.97;1744552;80;21138;-43
2021/01/02 10:01:21;;;;;;;9.28;5.65;;;;;;;6.02;64.28;101282.73;1740680;80;21700;-42
2021/01/02 10:03:49;;;;;;;7.60;5.45;;;;;;;6.08;64.24;101288.35;1737998;80;21158;-45
2021/01/02 10:06:16;;;;;;;9.83;5.67;;;;;;;6.13;64.26;101289.09;1737278;80;21142;-40
2021/01/02 10:08:44;;;;;;;8.00;5.47;;;;;;;6.17;64.19;101284.11;1737574;80;21153;-44
2021/01/02 10:11:11;;;;;;;8.30;5.80;;;;;;;6.20;64.10;101287.56;1744731;80;21142;-45
2021/01/02 10:13:39;;;;;;;9.25;5.53;;;;;;;6.24;64.21;101283.89;1745427;80;21138;-45
2021/01/02 10:16:06;;;;;;;7.25;5.05;;;;;;;6.30;64.08;101286.85;1750887;80;21643;-42
2021/01/02 10:18:34;;;;;;;7.75;5.53;;;;;;;6.35;64.10;101286.70;1752956;80;21546;-41
2021/01/02 10:21:02;;;;;;;7.87;5.20;;;;;;;6.40;63.98;101284.78;1744817;80;21149;-45
2021/01/02 10:23:29;;;;;;;8.48;6.08;;;;;;;6.44;63.86;101279.82;1753982;80;21134;-50
2021/01/02 10:25:57;;;;;;;8.45;4.92;;;;;;;6.48;63.81;101279.70;1750801;80;21146;-45
2021/01/02 10:28:24;;;;;;;7.95;5.55;;;;;;;6.54;63.75;101285.27;1747890;80;21146;-47
2021/01/02 10:30:52;;;;;;;8.40;5.83;;;;;;;6.60;63.59;101289.52;1750708;80;21106;-44
2021/01/02 10:33:20;;;;;;;8.38;5.90;;;;;;;6.63;63.47;101290.77;1755247;80;21098;-46
2021/01/02 10:35:47;;;;;;;8.08;5.50;;;;;;;6.64;63.24;101296.47;1742302;80;21157;-41
2021/01/02 10:38:15;;;;;;;8.98;5.83;;;;;;;6.64;63.25;101295.14;1749140;80;21141;-47
2021/01/02 10:40:42;;;;;;;9.25;6.62;;;;;;;6.66;63.33;101296.84;1747382;80;21125;-45
2021/01/02 10:43:10;;;;;;;7.15;5.12;;;;;;;6.71;63.36;101294.05;1745094;80;21140;-43
2021/01/02 10:45:38;;;;;;;8.10;4.97;;;;;;;6.76;63.29;101299.23;1747411;80;21492;-42
2021/01/02 10:48:07;;;;;;;6.87;5.00;;;;;;;6.77;63.30;101300.48;1749361;80;21665;-51
2021/01/02 10:50:34;;;;;;;7.25;5.08;;;;;;;6.81;63.20;101294.66;1746758;80;21573;-44
2021/01/02 10:53:01;;;;;;;7.40;5.00;;;;;;;6.81;63.08;101292.00;1751102;80;21152;-47
2021/01/02 10:55:29;;;;;;;9.25;5.90;;;;;;;6.81;63.17;101295.52;1744659;80;21146;-46
2021/01/02 10:57:56;;;;;;;7.65;4.80;;;;;;;6.82;63.05;101287.10;1745835;80;21144;-43
2021/01/02 11:00:25;;;;;;;7.95;4.45;;;;;;;6.84;62.91;101290.12;1750463;80;21130;-43
2021/01/02 11:02:52;;;;;;;7.87;5.42;;;;;;;6.82;62.84;101285.31;1747878;80;21145;-44
2021/01/02 11:05:20;;;;;;;9.13;5.35;;;;;;;6.83;62.99;101286.17;1747669;80;22059;-44
2021/01/02 11:07:47;;;;;;;7.22;5.37;;;;;;;6.85;62.89;101286.54;1747395;80;21126;-47
2021/01/02 11:10:15;;;;;;;7.78;5.22;;;;;;;6.89;62.81;101284.68;1745275;80;21154;-44
2021/01/02 11:12:43;;;;;;;7.12;5.37;;;;;;;6.91;62.77;101289.48;1747971;80;21142;-41
2021/01/02 11:15:12;;;;;;;9.58;6.00;;;;;;;6.89;62.64;101290.84;1751321;80;21169;-44
2021/01/02 11:17:40;;;;;;;8.35;6.37;;;;;;;6.89;62.79;101296.61;1745427;80;21519;-41
2021/01/02 11:20:09;;;;;;;8.33;5.78;;;;;;;6.89;62.63;101296.61;1748501;80;21137;-46
2021/01/02 11:22:37;;;;;;;7.87;5.78;;;;;;;6.89;62.74;101297.47;1747353;80;21811;-44
2021/01/02 11:25:06;;;;;;;10.48;6.47;;;;;;;6.90;62.71;101304.97;1752288;80;21169;-42
2021/01/02 11:27:34;;;;;;;9.33;6.47;;;;;;;6.91;62.70;101310.70;1750071;80;21150;-44
2021/01/02 11:30:03;;;;;;;9.83;6.53;;;;;;;6.92;62.61;101309.77;1746758;80;21887;-41
2021/01/02 11:32:33;;;;;;;10.03;6.12;;;;;;;6.92;62.58;101310.63;1747821;80;21657;-42
2021/01/02 11:35:00;;;;;;;7.37;5.40;;;;;;;6.92;62.60;101312.42;1753344;80;21145;-47
2021/01/02 11:37:28;;;;;;;8.53;5.53;;;;;;;6.93;62.59;101315.04;1749562;80;21198;-46
2021/01/02 11:39:57;;;;;;;7.95;5.87;;;;;;;6.94;62.59;101314.11;1747337;80;21106;-41
2021/01/02 11:42:25;;;;;;;8.53;5.92;;;;;;;6.91;62.49;101310.23;1749236;80;21485;-42
2021/01/02 11:44:53;;;;;;;8.58;5.67;;;;;;;6.88;62.56;101308.15;1713946;82;21616;-42
2021/01/02 11:47:21;;;;;;;7.85;5.20;;;;;;;6.88;62.67;101308.15;1749947;80;21114;-52
2021/01/02 11:49:49;;;;;;;8.28;5.90;;;;;;;6.89;62.72;101310.73;1710477;82;21140;-38
2021/01/02 11:52:16;;;;;;;9.23;5.47;;;;;;;6.90;62.77;101313.81;1701893;82;21169;-38
2021/01/02 11:54:44;;;;;;;7.67;5.97;;;;;;;6.94;62.64;101318.09;1706081;82;21581;-39
2021/01/02 11:57:11;;;;;;;8.08;5.42;;;;;;;6.98;62.58;101314.91;1703947;82;21162;-39
2021/01/02 11:59:42;;;;;;;7.50;5.25;;;;;;;7.02;62.49;101309.04;1702127;83;21150;-39
2021/01/02 12:02:10;;;;;;;8.10;6.20;;;;;;;7.04;62.53;101310.73;1745332;80;21174;-40
2021/01/02 12:04:37;;;;;;;7.92;6.00;;;;;;;7.07;62.96;101307.11;1750690;80;21154;-41